Time;durP1;ratioP1;P1;durP2;ratioP2;P2;SDS_P1;SDS_P2;PMS_P1;PMS_P2;Temp;Humidity;BMP_temperature;BMP_pressure;BME280_temperature;BME280_humidity;BME280_pressure;Samples;Min_cycle;Max_cycle;Signal;HPM_P1;HPM_P2
2021/04/14 00:00:35;;;;;;;;;3.00;3.00;;;;;;;;3566655;39;111895;-71
2021/04/14 00:03:02;;;;;;;;;10.33;8.33;;;;;;;;3563662;39;114226;-71
2021/04/14 00:05:30;;;;;;;;;2.00;2.00;;;;;;;;3565814;39;111988;-72
2021/04/14 00:07:56;;;;;;;;;1.50;1.50;;;;;;;;3564034;39;113462;-71
2021/04/14 00:10:25;;;;;;;;;1.50;1.50;;;;;;;;3563523;39;114357;-72
2021/04/14 00:12:51;;;;;;;;;1.00;1.00;;;;;;;;3563934;39;111804;-72
2021/04/14 00:15:20;;;;;;;;;2.00;2.00;;;;;;;;3563875;39;113456;-72
2021/04/14 00:17:47;;;;;;;;;3.50;2.75;;;;;;;;3563490;39;114416;-74
2021/04/14 00:20:15;;;;;;;;;8.00;7.00;;;;;;;;3565930;39;112537;-72
2021/04/14 00:22:41;;;;;;;;;13.67;7.00;;;;;;;;3566005;39;113237;-72
2021/04/14 00:25:08;;;;;;;;;9.33;8.00;;;;;;;;3563612;39;112111;-72
2021/04/14 00:27:37;;;;;;;;;5.33;5.33;;;;;;;;3563731;39;113099;-72
2021/04/14 00:30:05;;;;;;;;;5.67;5.33;;;;;;;;3563269;39;114198;-72
2021/04/14 00:32:31;;;;;;;;;8.00;6.00;;;;;;;;3560326;39;112887;-72
2021/04/14 00:34:57;;;;;;;;;7.33;5.00;;;;;;;;3567926;39;113644;-71
2021/04/14 00:37:23;;;;;;;;;6.00;6.00;;;;;;;;3563347;39;113835;-72
2021/04/14 00:39:50;;;;;;;;;7.67;6.00;;;;;;;;3563087;39;111880;-72
2021/04/14 00:42:16;;;;;;;;;7.00;6.00;;;;;;;;3563891;39;113251;-72
2021/04/14 00:44:42;;;;;;;;;7.33;5.67;;;;;;;;3566122;39;114069;-72
2021/04/14 00:47:08;;;;;;;;;6.67;6.00;;;;;;;;3563446;39;115038;-72
2021/04/14 00:49:34;;;;;;;;;11.00;7.00;;;;;;;;3563287;39;113995;-71
2021/04/14 00:52:01;;;;;;;;;5.00;2.33;;;;;;;;3564255;39;111808;-72
2021/04/14 00:54:27;;;;;;;;;2.33;2.33;;;;;;;;3564201;39;113409;-71
2021/04/14 00:56:53;;;;;;;;;2.67;2.67;;;;;;;;3563574;39;114711;-72
2021/04/14 00:59:19;;;;;;;;;4.33;2.00;;;;;;;;3563752;39;112075;-72
2021/04/14 01:01:45;;;;;;;;;3.00;2.00;;;;;;;;3563725;39;113614;-72
2021/04/14 01:04:13;;;;;;;;;2.00;2.00;;;;;;;;3563093;39;114002;-72
2021/04/14 01:06:39;;;;;;;;;3.67;2.00;;;;;;;;3566293;39;111889;-72
2021/04/14 01:09:06;;;;;;;;;1.00;1.00;;;;;;;;3563120;39;114589;-72
2021/04/14 01:11:32;;;;;;;;;5.67;3.00;;;;;;;;3563665;39;111850;-72
2021/04/14 01:13:58;;;;;;;;;4.33;4.33;;;;;;;;3563656;39;113419;-71
2021/04/14 01:16:24;;;;;;;;;3.67;3.67;;;;;;;;3562915;39;114018;-71
2021/04/14 01:18:50;;;;;;;;;2.67;2.67;;;;;;;;3563464;39;112673;-71
2021/04/14 01:21:20;;;;;;;;;2.67;2.00;;;;;;;;3564412;39;113345;-70
2021/04/14 01:23:46;;;;;;;;;2.33;2.33;;;;;;;;3563693;39;114113;-72
2021/04/14 01:26:12;;;;;;;;;2.67;2.67;;;;;;;;3565981;39;112106;-72
2021/04/14 01:28:39;;;;;;;;;3.00;2.00;;;;;;;;3562983;39;113823;-71
2021/04/14 01:31:07;;;;;;;;;2.67;2.00;;;;;;;;3563313;39;112337;-72
2021/04/14 01:33:33;;;;;;;;;2.67;2.67;;;;;;;;3563350;39;113653;-71
2021/04/14 01:36:00;;;;;;;;;3.00;3.00;;;;;;;;3563148;39;113623;-71
2021/04/14 01:38:27;;;;;;;;;1.67;1.67;;;;;;;;3565852;39;112263;-72
2021/04/14 01:40:53;;;;;;;;;3.00;2.00;;;;;;;;3564137;39;113072;-72
2021/04/14 01:43:19;;;;;;;;;3.00;3.00;;;;;;;;3565044;39;113831;-71
2021/04/14 01:45:46;;;;;;;;;3.00;2.00;;;;;;;;3567488;39;112405;-72
2021/04/14 01:48:13;;;;;;;;;3.00;2.00;;;;;;;;3565489;39;113656;-72
2021/04/14 01:50:39;;;;;;;;;2.67;2.00;;;;;;;;3563085;39;113240;-72
2021/04/14 01:53:08;;;;;;;;;2.00;1.33;;;;;;;;3563860;39;113131;-72
2021/04/14 01:55:35;;;;;;;;;2.00;2.00;;;;;;;;3564337;39;112313;-72
2021/04/14 01:58:01;;;;;;;;;4.33;3.00;;;;;;;;3564646;39;111819;-71
2021/04/14 02:00:29;;;;;;;;;2.00;2.00;;;;;;;;3564793;39;113261;-72
2021/04/14 02:02:56;;;;;;;;;2.67;2.00;;;;;;;;3564056;39;114356;-72
2021/04/14 02:05:23;;;;;;;;;3.00;1.33;;;;;;;;3564531;39;111941;-71
2021/04/14 02:07:50;;;;;;;;;2.33;2.33;;;;;;;;3564532;39;113815;-71
2021/04/14 02:10:16;;;;;;;;;5.33;2.00;;;;;;;;3566711;39;113405;-73
2021/04/14 02:12:43;;;;;;;;;2.33;2.33;;;;;;;;3564560;39;113381;-73
2021/04/14 02:15:11;;;;;;;;;2.67;2.00;;;;;;;;3563970;39;113816;-73
2021/04/14 02:17:37;;;;;;;;;5.00;2.00;;;;;;;;3564526;39;112191;-73
2021/04/14 02:20:04;;;;;;;;;2.67;1.00;;;;;;;;3564306;39;115466;-73
2021/04/14 02:22:30;;;;;;;;;1.00;1.00;;;;;;;;3564186;39;114436;-74
2021/04/14 02:24:56;;;;;;;;;2.00;1.00;;;;;;;;3561482;39;112927;-71
2021/04/14 02:27:22;;;;;;;;;2.00;2.00;;;;;;;;3564501;39;113539;-72
2021/04/14 02:29:49;;;;;;;;;3.00;1.33;;;;;;;;3563986;39;114036;-72
2021/04/14 02:32:15;;;;;;;;;2.00;2.00;;;;;;;;3567180;39;111895;-72
2021/04/14 02:34:41;;;;;;;;;1.00;1.00;;;;;;;;3563926;39;114021;-73
2021/04/14 02:37:07;;;;;;;;;0.00;0.00;;;;;;;;3564684;39;112162;-72
2021/04/14 02:39:34;;;;;;;;;2.00;2.00;;;;;;;;3566837;39;113745;-71
2021/04/14 02:42:00;;;;;;;;;3.00;2.67;;;;;;;;3560578;39;113934;-71
2021/04/14 02:44:26;;;;;;;;;2.00;2.00;;;;;;;;3564600;39;112736;-72
2021/04/14 02:46:53;;;;;;;;;3.00;1.00;;;;;;;;3564255;39;113671;-72
2021/04/14 02:49:19;;;;;;;;;2.00;1.00;;;;;;;;3564023;39;113870;-72
2021/04/14 02:51:45;;;;;;;;;2.00;2.00;;;;;;;;3564205;39;112220;-71
2021/04/14 02:54:11;;;;;;;;;2.00;2.00;;;;;;;;3566691;39;113310;-72
2021/04/14 02:56:37;;;;;;;;;2.67;2.00;;;;;;;;3564248;39;112004;-72
2021/04/14 02:59:03;;;;;;;;;2.00;2.00;;;;;;;;3566567;39;113431;-72
2021/04/14 03:01:29;;;;;;;;;1.67;1.67;;;;;;;;3565879;39;114248;-71
2021/04/14 03:03:56;;;;;;;;;2.00;2.00;;;;;;;;3564168;39;112048;-71
2021/04/14 03:06:22;;;;;;;;;1.00;1.00;;;;;;;;3564280;39;112966;-72
2021/04/14 03:08:48;;;;;;;;;1.00;1.00;;;;;;;;3563656;39;113948;-72
2021/04/14 03:11:15;;;;;;;;;2.33;2.00;;;;;;;;3564301;39;111812;-72
2021/04/14 03:13:41;;;;;;;;;3.00;3.00;;;;;;;;3564321;39;113315;-72
2021/04/14 03:16:07;;;;;;;;;2.67;2.67;;;;;;;;3563504;39;113031;-71
2021/04/14 03:18:33;;;;;;;;;3.00;3.00;;;;;;;;3566526;39;113340;-71
2021/04/14 03:21:00;;;;;;;;;2.00;2.00;;;;;;;;3565739;39;114314;-71
2021/04/14 03:23:26;;;;;;;;;3.00;1.33;;;;;;;;3564171;39;111956;-71
2021/04/14 03:25:52;;;;;;;;;3.00;1.33;;;;;;;;3564222;39;113368;-71
2021/04/14 03:28:19;;;;;;;;;2.00;2.00;;;;;;;;3563589;39;114202;-72
2021/04/14 03:30:45;;;;;;;;;2.00;2.00;;;;;;;;3564092;39;111831;-72
2021/04/14 03:33:12;;;;;;;;;5.67;4.33;;;;;;;;3564331;39;113822;-72
2021/04/14 03:35:38;;;;;;;;;4.00;3.00;;;;;;;;3566457;39;113997;-71
2021/04/14 03:38:05;;;;;;;;;5.00;2.67;;;;;;;;3564265;39;113245;-71
2021/04/14 03:40:31;;;;;;;;;5.33;2.00;;;;;;;;3563743;39;114236;-72
2021/04/14 03:42:57;;;;;;;;;4.33;2.00;;;;;;;;3563979;39;112653;-72
2021/04/14 03:45:28;;;;;;;;;5.33;2.33;;;;;;;;3564068;39;113995;-72
2021/04/14 03:47:54;;;;;;;;;5.00;3.00;;;;;;;;3563628;39;113813;-72
2021/04/14 03:50:21;;;;;;;;;2.33;2.33;;;;;;;;3564156;39;111826;-72
2021/04/14 03:52:48;;;;;;;;;1.00;1.00;;;;;;;;3563954;39;113773;-72
2021/04/14 03:55:16;;;;;;;;;3.00;2.00;;;;;;;;3563928;39;113989;-72
2021/04/14 03:57:42;;;;;;;;;1.00;1.00;;;;;;;;3564472;39;112002;-72
2021/04/14 04:00:09;;;;;;;;;2.67;1.33;;;;;;;;3564864;39;113752;-71
2021/04/14 04:02:35;;;;;;;;;2.00;2.00;;;;;;;;3564182;39;111976;-71
2021/04/14 04:05:01;;;;;;;;;3.00;1.00;;;;;;;;3563958;39;113276;-72
2021/04/14 04:07:27;;;;;;;;;3.67;3.00;;;;;;;;3563573;39;114184;-72
2021/04/14 04:09:54;;;;;;;;;3.00;2.00;;;;;;;;3563727;39;111974;-72
2021/04/14 04:12:20;;;;;;;;;3.00;2.00;;;;;;;;3564187;39;113047;-73
2021/04/14 04:14:48;;;;;;;;;2.00;2.00;;;;;;;;3562980;39;114001;-72
2021/04/14 04:17:15;;;;;;;;;2.00;2.00;;;;;;;;3566405;39;112330;-73
2021/04/14 04:19:41;;;;;;;;;3.33;2.00;;;;;;;;3568343;39;113333;-73
2021/04/14 04:22:07;;;;;;;;;6.00;3.33;;;;;;;;3564027;39;111859;-73
2021/04/14 04:24:33;;;;;;;;;2.00;2.00;;;;;;;;3564187;39;113147;-73
2021/04/14 04:26:59;;;;;;;;;5.00;1.67;;;;;;;;3565444;39;114674;-73
2021/04/14 04:29:26;;;;;;;;;5.67;3.33;;;;;;;;3564051;39;113119;-73
2021/04/14 04:31:53;;;;;;;;;1.00;1.00;;;;;;;;3563767;39;113895;-73
2021/04/14 04:34:19;;;;;;;;;4.67;2.00;;;;;;;;3565688;39;114229;-72
2021/04/14 04:36:45;;;;;;;;;1.00;1.00;;;;;;;;3565971;39;111809;-73
2021/04/14 04:39:11;;;;;;;;;5.00;2.00;;;;;;;;3563915;39;113315;-72
2021/04/14 04:41:37;;;;;;;;;2.00;2.00;;;;;;;;3565933;39;113963;-72
2021/04/14 04:44:03;;;;;;;;;4.00;1.67;;;;;;;;3564008;39;113316;-72
2021/04/14 04:46:30;;;;;;;;;4.67;4.00;;;;;;;;3559862;39;113058;-72
2021/04/14 04:48:56;;;;;;;;;3.33;2.00;;;;;;;;3563823;39;112826;-72
2021/04/14 04:51:22;;;;;;;;;4.00;4.00;;;;;;;;3561038;39;112684;-71
2021/04/14 04:53:48;;;;;;;;;4.00;2.00;;;;;;;;3566919;39;114264;-73
2021/04/14 04:56:16;;;;;;;;;5.00;5.00;;;;;;;;3562932;39;111880;-72
2021/04/14 04:58:42;;;;;;;;;4.00;4.00;;;;;;;;3567162;39;114297;-71
2021/04/14 05:01:08;;;;;;;;;5.00;2.00;;;;;;;;3563756;39;114143;-72
2021/04/14 05:03:36;;;;;;;;;1.67;1.67;;;;;;;;3566458;39;111870;-72
2021/04/14 05:06:02;;;;;;;;;4.00;4.00;;;;;;;;3563434;39;114323;-72
2021/04/14 05:08:28;;;;;;;;;5.00;5.00;;;;;;;;3563663;39;111820;-72
2021/04/14 05:10:55;;;;;;;;;6.00;4.00;;;;;;;;3563627;39;113498;-73
2021/04/14 05:13:21;;;;;;;;;4.00;4.00;;;;;;;;3563179;39;113312;-72
2021/04/14 05:15:47;;;;;;;;;2.00;2.00;;;;;;;;3563631;39;112803;-73
2021/04/14 05:18:14;;;;;;;;;4.00;4.00;;;;;;;;3563585;39;113394;-73
2021/04/14 05:20:41;;;;;;;;;2.00;2.00;;;;;;;;3563033;39;114066;-71
2021/04/14 05:23:08;;;;;;;;;2.00;2.00;;;;;;;;3563503;39;113280;-71
2021/04/14 05:25:36;;;;;;;;;5.33;4.00;;;;;;;;3568036;39;113781;-72
2021/04/14 05:28:05;;;;;;;;;5.33;5.00;;;;;;;;3564171;39;113141;-72
2021/04/14 05:30:32;;;;;;;;;6.67;4.00;;;;;;;;3565029;39;113535;-70
2021/04/14 05:32:58;;;;;;;;;1.33;1.33;;;;;;;;3566413;39;114330;-70
2021/04/14 05:35:24;;;;;;;;;5.00;4.00;;;;;;;;3564786;39;111961;-70
2021/04/14 05:37:51;;;;;;;;;5.00;4.00;;;;;;;;3564614;39;113208;-69
2021/04/14 05:40:18;;;;;;;;;5.33;5.00;;;;;;;;3565343;39;113595;-70
2021/04/14 05:42:45;;;;;;;;;4.67;4.67;;;;;;;;3565661;39;111862;-70
2021/04/14 05:45:13;;;;;;;;;6.00;6.00;;;;;;;;3567008;39;113154;-69
2021/04/14 05:47:39;;;;;;;;;5.00;5.00;;;;;;;;3564753;39;111816;-69
2021/04/14 05:50:06;;;;;;;;;7.67;6.00;;;;;;;;3564791;39;113437;-72
2021/04/14 05:52:32;;;;;;;;;8.00;6.00;;;;;;;;3566644;39;114063;-70
2021/04/14 05:54:59;;;;;;;;;8.00;8.00;;;;;;;;3566828;39;112074;-71
2021/04/14 05:57:25;;;;;;;;;5.33;2.00;;;;;;;;3564679;39;113337;-69
2021/04/14 05:59:51;;;;;;;;;7.33;7.33;;;;;;;;3564734;39;114121;-70
2021/04/14 06:02:17;;;;;;;;;9.00;9.00;;;;;;;;3563695;39;112872;-73
2021/04/14 06:04:43;;;;;;;;;9.00;9.00;;;;;;;;3566515;39;112899;-74
2021/04/14 06:07:11;;;;;;;;;7.33;7.33;;;;;;;;3566659;39;114273;-71
2021/04/14 06:09:37;;;;;;;;;12.00;9.00;;;;;;;;3563958;39;113249;-71
2021/04/14 06:12:04;;;;;;;;;10.00;8.00;;;;;;;;3563432;39;113857;-71
2021/04/14 06:14:30;;;;;;;;;9.00;8.33;;;;;;;;3564063;39;112144;-71
2021/04/14 06:16:56;;;;;;;;;9.67;5.00;;;;;;;;3563610;39;113492;-71
2021/04/14 06:19:22;;;;;;;;;6.67;6.67;;;;;;;;3563836;39;114016;-75
2021/04/14 06:21:48;;;;;;;;;12.00;11.00;;;;;;;;3562396;39;112031;-74
2021/04/14 06:24:15;;;;;;;;;14.00;13.67;;;;;;;;3562562;39;113761;-73
2021/04/14 06:26:44;;;;;;;;;10.00;10.00;;;;;;;;3562031;39;113910;-74
2021/04/14 06:29:11;;;;;;;;;9.00;9.00;;;;;;;;3565467;39;111923;-73
2021/04/14 06:31:42;;;;;;;;;12.00;9.00;;;;;;;;3562076;39;114159;-74
2021/04/14 06:34:13;;;;;;;;;10.00;9.00;;;;;;;;3564786;39;112958;-73
2021/04/14 06:36:39;;;;;;;;;10.67;10.67;;;;;;;;3565644;39;113748;-74
2021/04/14 06:39:06;;;;;;;;;9.00;9.00;;;;;;;;3563163;39;114332;-74
2021/04/14 06:41:52;;;;;;;;;10.00;9.33;;;;;;;;3563839;39;112086;-73
2021/04/14 06:44:24;;;;;;;;;12.33;10.00;;;;;;;;3563671;39;112091;-73
2021/04/14 06:46:51;;;;;;;;;10.00;10.00;;;;;;;;3563087;39;113606;-74
2021/04/14 06:49:19;;;;;;;;;11.33;10.00;;;;;;;;3563756;39;112505;-74
2021/04/14 06:51:50;;;;;;;;;13.33;9.67;;;;;;;;3566100;39;113698;-72
2021/04/14 06:54:22;;;;;;;;;12.33;11.33;;;;;;;;3562217;39;112159;-69
2021/04/14 06:56:51;;;;;;;;;11.67;11.00;;;;;;;;3565690;39;113341;-75
2021/04/14 06:59:18;;;;;;;;;14.33;12.33;;;;;;;;3564045;39;113857;-76
2021/04/14 07:01:48;;;;;;;;;10.00;10.00;;;;;;;;3563336;39;112210;-74
2021/04/14 07:04:16;;;;;;;;;14.33;11.67;;;;;;;;3563852;39;113251;-74
2021/04/14 07:06:44;;;;;;;;;10.00;10.00;;;;;;;;3562934;39;114135;-74
2021/04/14 07:09:15;;;;;;;;;10.00;10.00;;;;;;;;3565882;39;111775;-74
2021/04/14 07:11:41;;;;;;;;;7.00;7.00;;;;;;;;3563576;39;113285;-72
2021/04/14 07:14:08;;;;;;;;;12.33;10.67;;;;;;;;3565763;39;114103;-72
2021/04/14 07:16:39;;;;;;;;;13.67;10.00;;;;;;;;3563624;39;113329;-72
2021/04/14 07:19:12;;;;;;;;;10.00;9.00;;;;;;;;3563316;39;114426;-73
2021/04/14 07:21:42;;;;;;;;;9.00;9.00;;;;;;;;3563407;39;112933;-75
2021/04/14 07:24:17;;;;;;;;;13.00;10.00;;;;;;;;3563658;39;113313;-74
2021/04/14 07:26:47;;;;;;;;;10.00;9.00;;;;;;;;3564275;39;113921;-73
2021/04/14 07:29:17;;;;;;;;;5.67;5.67;;;;;;;;3563813;39;112177;-74
2021/04/14 07:31:47;;;;;;;;;9.67;9.00;;;;;;;;3563651;39;113275;-71
2021/04/14 07:34:22;;;;;;;;;11.67;10.00;;;;;;;;3563407;39;114022;-72
2021/04/14 07:36:52;;;;;;;;;9.00;6.00;;;;;;;;3566428;39;112019;-71
2021/04/14 07:39:20;;;;;;;;;12.33;11.33;;;;;;;;3562940;39;113861;-72
2021/04/14 07:41:53;;;;;;;;;11.00;10.00;;;;;;;;3565490;39;112412;-72
2021/04/14 07:44:24;;;;;;;;;11.33;9.67;;;;;;;;3563535;39;113266;-71
2021/04/14 07:46:50;;;;;;;;;7.67;7.67;;;;;;;;3563193;39;112984;-72
2021/04/14 07:49:18;;;;;;;;;11.00;10.00;;;;;;;;3563304;39;112279;-72
2021/04/14 07:51:44;;;;;;;;;14.33;9.00;;;;;;;;3562636;39;113349;-71
2021/04/14 07:54:14;;;;;;;;;10.00;9.00;;;;;;;;3563079;39;114457;-72
2021/04/14 07:56:41;;;;;;;;;7.00;7.00;;;;;;;;3565602;39;112221;-70
2021/04/14 07:59:09;;;;;;;;;8.00;7.00;;;;;;;;3562779;39;113966;-72
2021/04/14 08:01:37;;;;;;;;;8.75;8.75;;;;;;;;3562833;39;111772;-72
2021/04/14 08:04:11;;;;;;;;;6.00;6.00;;;;;;;;3563454;39;113296;-71
2021/04/14 08:06:37;;;;;;;;;7.00;7.00;;;;;;;;3562886;39;114019;-72
2021/04/14 08:09:12;;;;;;;;;8.50;7.00;;;;;;;;3563381;39;112290;-71
2021/04/14 08:11:38;;;;;;;;;8.00;6.75;;;;;;;;3562920;39;113926;-70
2021/04/14 08:14:10;;;;;;;;;5.00;5.00;;;;;;;;3562965;39;114047;-71
2021/04/14 08:16:39;;;;;;;;;5.00;5.00;;;;;;;;3563491;39;111757;-69
2021/04/14 08:19:07;;;;;;;;;5.50;5.50;;;;;;;;3565767;39;113161;-71
2021/04/14 08:21:35;;;;;;;;;6.75;6.75;;;;;;;;3565261;39;113674;-70
2021/04/14 08:24:04;;;;;;;;;6.50;5.75;;;;;;;;3565404;39;114007;-71
2021/04/14 08:26:30;;;;;;;;;8.00;5.25;;;;;;;;3562752;39;116012;-72
2021/04/14 08:29:07;;;;;;;;;6.00;6.00;;;;;;;;3563020;39;111982;-72
2021/04/14 08:31:45;;;;;;;;;6.00;5.75;;;;;;;;3563198;39;113301;-71
2021/04/14 08:34:13;;;;;;;;;7.00;7.00;;;;;;;;3562986;39;115151;-72
2021/04/14 08:36:42;;;;;;;;;6.75;6.75;;;;;;;;3563234;39;112160;-71
2021/04/14 08:39:13;;;;;;;;;6.00;4.50;;;;;;;;3563475;39;113471;-71
2021/04/14 08:41:39;;;;;;;;;5.00;5.00;;;;;;;;3564947;39;113994;-70
2021/04/14 08:44:07;;;;;;;;;3.00;3.00;;;;;;;;3563506;39;113534;-71
2021/04/14 08:46:37;;;;;;;;;4.75;4.75;;;;;;;;3562502;39;113844;-71
2021/04/14 08:49:04;;;;;;;;;6.00;6.00;;;;;;;;3565452;39;112724;-72
2021/04/14 08:51:33;;;;;;;;;5.00;5.00;;;;;;;;3565841;39;113152;-72
2021/04/14 08:53:59;;;;;;;;;5.00;5.00;;;;;;;;3565194;39;113793;-73
2021/04/14 08:56:26;;;;;;;;;5.00;5.00;;;;;;;;3563302;39;111912;-73
2021/04/14 08:58:54;;;;;;;;;4.67;4.33;;;;;;;;3563167;39;113954;-73
2021/04/14 09:01:20;;;;;;;;;3.00;3.00;;;;;;;;3562515;39;114515;-71
2021/04/14 09:03:47;;;;;;;;;4.00;4.00;;;;;;;;3565788;39;111827;-73
2021/04/14 09:06:13;;;;;;;;;6.00;5.00;;;;;;;;3563034;39;113691;-72
2021/04/14 09:08:42;;;;;;;;;3.33;3.33;;;;;;;;3562985;39;111908;-72
2021/04/14 09:11:16;;;;;;;;;2.33;2.33;;;;;;;;3563103;39;113750;-73
2021/04/14 09:13:50;;;;;;;;;7.00;5.33;;;;;;;;3562570;39;113786;-73
2021/04/14 09:16:27;;;;;;;;;4.33;4.33;;;;;;;;3563220;39;111799;-72
2021/04/14 09:18:53;;;;;;;;;6.67;5.00;;;;;;;;3565266;39;113932;-72
2021/04/14 09:21:19;;;;;;;;;3.00;3.00;;;;;;;;3562677;39;114253;-72
2021/04/14 09:23:54;;;;;;;;;4.00;4.00;;;;;;;;3562916;39;112096;-71
2021/04/14 09:26:24;;;;;;;;;3.67;2.67;;;;;;;;3565319;39;113425;-71
2021/04/14 09:28:52;;;;;;;;;3.00;3.00;;;;;;;;3562599;39;112129;-73
2021/04/14 09:31:27;;;;;;;;;1.33;1.00;;;;;;;;3565086;39;113534;-73
2021/04/14 09:33:54;;;;;;;;;2.00;2.00;;;;;;;;3562401;39;114124;-73
2021/04/14 09:36:29;;;;;;;;;1.00;1.00;;;;;;;;3563108;39;112047;-74
2021/04/14 09:39:06;;;;;;;;;1.00;1.00;;;;;;;;3562654;39;113234;-73
2021/04/14 09:41:35;;;;;;;;;3.00;2.00;;;;;;;;3563912;39;114164;-74
2021/04/14 09:44:13;;;;;;;;;5.33;5.33;;;;;;;;3562599;39;111846;-75
2021/04/14 09:46:40;;;;;;;;;3.00;3.00;;;;;;;;3562517;39;113758;-75
2021/04/14 09:49:11;;;;;;;;;2.00;2.00;;;;;;;;3564806;39;112166;-76
2021/04/14 09:51:38;;;;;;;;;0.00;0.00;;;;;;;;3562283;39;113791;-73
2021/04/14 09:54:12;;;;;;;;;0.00;0.00;;;;;;;;3562317;39;114119;-72
2021/04/14 09:56:43;;;;;;;;;2.00;1.00;;;;;;;;3562152;39;112908;-72
2021/04/14 09:59:10;;;;;;;;;0.33;0.33;;;;;;;;3564763;39;113202;-76
2021/04/14 10:01:39;;;;;;;;;1.00;1.00;;;;;;;;3561962;39;112827;-71
2021/04/14 10:04:08;;;;;;;;;3.00;3.00;;;;;;;;3563135;39;112635;-71
2021/04/14 10:06:34;;;;;;;;;1.00;1.00;;;;;;;;3566095;39;113242;-70
2021/04/14 10:09:03;;;;;;;;;1.00;1.00;;;;;;;;3564752;39;114251;-70
2021/04/14 10:11:30;;;;;;;;;1.00;1.00;;;;;;;;3562469;39;113557;-68
2021/04/14 10:13:57;;;;;;;;;1.00;1.00;;;;;;;;3562437;39;113993;-68
2021/04/14 10:16:24;;;;;;;;;0.33;0.33;;;;;;;;3564226;39;111948;-68
2021/04/14 10:18:59;;;;;;;;;2.00;2.00;;;;;;;;3563733;39;113280;-69
2021/04/14 10:21:26;;;;;;;;;2.00;2.00;;;;;;;;3563546;39;113962;-69
2021/04/14 10:23:55;;;;;;;;;2.00;2.00;;;;;;;;3563393;39;111913;-69
2021/04/14 10:26:21;;;;;;;;;1.50;1.50;;;;;;;;3565874;39;113360;-69
2021/04/14 10:28:47;;;;;;;;;0.75;0.75;;;;;;;;3562977;39;114021;-68
2021/04/14 10:31:15;;;;;;;;;1.00;1.00;;;;;;;;3566551;39;112291;-68
2021/04/14 10:33:42;;;;;;;;;1.00;1.00;;;;;;;;3562842;39;113974;-68
2021/04/14 10:36:11;;;;;;;;;1.00;1.00;;;;;;;;3563928;39;112308;-68
2021/04/14 10:38:37;;;;;;;;;1.00;1.00;;;;;;;;3563414;39;113599;-68
2021/04/14 10:41:12;;;;;;;;;0.50;0.50;;;;;;;;3563180;39;113803;-69
2021/04/14 10:43:38;;;;;;;;;1.00;1.00;;;;;;;;3565355;39;112897;-69
2021/04/14 10:46:05;;;;;;;;;3.00;2.00;;;;;;;;3563790;39;113354;-68
2021/04/14 10:48:32;;;;;;;;;1.00;1.00;;;;;;;;3563269;39;114082;-69
2021/04/14 10:51:02;;;;;;;;;1.75;1.00;;;;;;;;3563668;39;112093;-69
2021/04/14 10:53:32;;;;;;;;;1.00;1.00;;;;;;;;3565753;39;113679;-69
2021/04/14 10:55:58;;;;;;;;;2.00;2.00;;;;;;;;3563590;39;111999;-69
2021/04/14 10:58:25;;;;;;;;;2.00;2.00;;;;;;;;3567140;39;113291;-68
2021/04/14 11:00:51;;;;;;;;;1.00;1.00;;;;;;;;3564188;39;114581;-67
2021/04/14 11:03:19;;;;;;;;;1.00;1.00;;;;;;;;3563428;39;112092;-67
2021/04/14 11:05:46;;;;;;;;;1.00;1.00;;;;;;;;3563381;39;113296;-68
2021/04/14 11:08:12;;;;;;;;;1.50;1.00;;;;;;;;3563547;39;113786;-69
2021/04/14 11:10:40;;;;;;;;;3.50;1.75;;;;;;;;3563335;39;112227;-68
2021/04/14 11:13:12;;;;;;;;;1.00;1.00;;;;;;;;3563614;39;113397;-69
2021/04/14 11:15:39;;;;;;;;;2.75;2.00;;;;;;;;3565692;39;113857;-68
2021/04/14 11:18:07;;;;;;;;;2.00;2.00;;;;;;;;3563549;39;113502;-69
2021/04/14 11:20:43;;;;;;;;;1.00;1.00;;;;;;;;3563223;39;113924;-69
2021/04/14 11:23:20;;;;;;;;;2.00;2.00;;;;;;;;3563538;39;111886;-69
2021/04/14 11:25:47;;;;;;;;;1.00;1.00;;;;;;;;3563482;39;113974;-68
2021/04/14 11:28:14;;;;;;;;;2.50;1.50;;;;;;;;3562879;39;113987;-71
2021/04/14 11:30:48;;;;;;;;;1.50;1.50;;;;;;;;3565066;39;111892;-70
2021/04/14 11:33:14;;;;;;;;;1.25;1.25;;;;;;;;3563669;39;113269;-70
2021/04/14 11:35:41;;;;;;;;;2.00;2.00;;;;;;;;3562750;39;114353;-68
2021/04/14 11:38:08;;;;;;;;;1.00;1.00;;;;;;;;3566322;39;112726;-68
2021/04/14 11:40:38;;;;;;;;;0.00;0.00;;;;;;;;3562909;39;114100;-71
2021/04/14 11:43:06;;;;;;;;;1.00;1.00;;;;;;;;3558487;39;112096;-70
2021/04/14 11:45:33;;;;;;;;;1.00;1.00;;;;;;;;3563186;39;113383;-71
2021/04/14 11:48:06;;;;;;;;;1.00;1.00;;;;;;;;3562960;39;114138;-69
2021/04/14 11:50:33;;;;;;;;;1.50;1.50;;;;;;;;3563234;39;111740;-69
2021/04/14 11:53:01;;;;;;;;;1.75;1.75;;;;;;;;3564730;39;112721;-67
2021/04/14 11:55:29;;;;;;;;;1.00;1.00;;;;;;;;3567339;39;112888;-71
2021/04/14 11:57:57;;;;;;;;;1.75;1.75;;;;;;;;3563914;39;112398;-68
2021/04/14 12:00:26;;;;;;;;;1.00;1.00;;;;;;;;3564291;39;114060;-67
2021/04/14 12:02:55;;;;;;;;;1.00;1.00;;;;;;;;3564711;39;112065;-67
2021/04/14 12:05:21;;;;;;;;;2.00;2.00;;;;;;;;3564818;39;113458;-67
2021/04/14 12:07:47;;;;;;;;;1.25;1.00;;;;;;;;3563420;39;115117;-67
2021/04/14 12:10:14;;;;;;;;;1.00;1.00;;;;;;;;3564676;39;112160;-66
2021/04/14 12:12:40;;;;;;;;;1.25;1.25;;;;;;;;3564986;39;113505;-67
2021/04/14 12:15:08;;;;;;;;;1.00;1.00;;;;;;;;3565468;39;113865;-67
2021/04/14 12:17:35;;;;;;;;;3.00;2.00;;;;;;;;3565471;39;111933;-68
2021/04/14 12:20:01;;;;;;;;;1.00;1.00;;;;;;;;3564940;39;112627;-68
2021/04/14 12:22:29;;;;;;;;;1.00;1.00;;;;;;;;3562357;39;111949;-67
2021/04/14 12:24:55;;;;;;;;;1.00;1.00;;;;;;;;3564333;39;113485;-68
2021/04/14 12:27:21;;;;;;;;;2.00;2.00;;;;;;;;3559807;39;113097;-74
2021/04/14 12:29:47;;;;;;;;;1.00;1.00;;;;;;;;3562486;39;111947;-68
2021/04/14 12:32:13;;;;;;;;;2.00;2.00;;;;;;;;3566029;39;113188;-70
2021/04/14 12:34:40;;;;;;;;;2.00;2.00;;;;;;;;3563397;39;112885;-70
2021/04/14 12:37:06;;;;;;;;;1.00;1.00;;;;;;;;3567506;39;111871;-71
2021/04/14 12:39:32;;;;;;;;;1.00;1.00;;;;;;;;3564018;39;113728;-72
2021/04/14 12:41:58;;;;;;;;;1.75;1.75;;;;;;;;3569437;39;113521;-70
2021/04/14 12:44:24;;;;;;;;;2.00;2.00;;;;;;;;3564520;39;113779;-68
2021/04/14 12:46:51;;;;;;;;;3.00;2.00;;;;;;;;3563798;39;114198;-68
2021/04/14 12:49:19;;;;;;;;;1.75;1.75;;;;;;;;3564238;39;112063;-68
2021/04/14 12:51:48;;;;;;;;;1.00;1.00;;;;;;;;3563830;39;113356;-68
2021/04/14 12:54:20;;;;;;;;;2.00;2.00;;;;;;;;3563655;39;113878;-69
2021/04/14 12:56:50;;;;;;;;;2.00;2.00;;;;;;;;3563867;39;111848;-68
2021/04/14 12:59:18;;;;;;;;;1.00;1.00;;;;;;;;3564277;39;113683;-68
2021/04/14 13:01:44;;;;;;;;;1.25;1.25;;;;;;;;3562975;39;114184;-68
2021/04/14 13:04:15;;;;;;;;;1.50;1.50;;;;;;;;3567013;39;112214;-68
2021/04/14 13:06:43;;;;;;;;;2.50;1.75;;;;;;;;3563634;39;114515;-69
2021/04/14 13:09:11;;;;;;;;;3.50;2.00;;;;;;;;3566645;39;112219;-69
2021/04/14 13:11:38;;;;;;;;;5.75;5.00;;;;;;;;3563986;39;113397;-69
2021/04/14 13:14:04;;;;;;;;;3.00;3.00;;;;;;;;3563081;39;114451;-69
2021/04/14 13:16:33;;;;;;;;;3.00;3.00;;;;;;;;3564579;39;113337;-70
2021/04/14 13:18:59;;;;;;;;;4.25;4.00;;;;;;;;3564334;39;113721;-70
2021/04/14 13:21:28;;;;;;;;;3.75;3.75;;;;;;;;3564215;39;113730;-71
2021/04/14 13:24:00;;;;;;;;;3.25;3.25;;;;;;;;3563031;39;112803;-69
2021/04/14 13:26:32;;;;;;;;;5.00;4.00;;;;;;;;3564682;39;113465;-71
2021/04/14 13:29:04;;;;;;;;;3.00;3.00;;;;;;;;3564386;39;111864;-67
2021/04/14 13:31:34;;;;;;;;;4.00;3.25;;;;;;;;3563775;39;112409;-69
2021/04/14 13:34:03;;;;;;;;;3.00;3.00;;;;;;;;3561195;39;113309;-67
2021/04/14 13:36:33;;;;;;;;;2.25;2.25;;;;;;;;3566292;39;112573;-69
2021/04/14 13:39:01;;;;;;;;;2.00;2.00;;;;;;;;3564506;39;113282;-70
2021/04/14 13:41:34;;;;;;;;;2.00;1.50;;;;;;;;3562358;39;113820;-68
2021/04/14 13:44:04;;;;;;;;;2.00;2.00;;;;;;;;3562341;39;111939;-68
2021/04/14 13:46:33;;;;;;;;;2.00;2.00;;;;;;;;3564160;39;113527;-69
2021/04/14 13:49:02;;;;;;;;;2.00;2.00;;;;;;;;3567354;39;114776;-70
2021/04/14 13:51:31;;;;;;;;;2.25;2.00;;;;;;;;3567437;39;113215;-70
2021/04/14 13:53:57;;;;;;;;;2.00;2.00;;;;;;;;3563511;39;114028;-69
2021/04/14 13:56:31;;;;;;;;;3.00;3.00;;;;;;;;3566235;39;113120;-69
2021/04/14 13:59:00;;;;;;;;;5.00;2.00;;;;;;;;3564244;39;113247;-69
2021/04/14 14:01:28;;;;;;;;;2.00;2.00;;;;;;;;3563461;39;113833;-68
2021/04/14 14:03:54;;;;;;;;;3.00;3.00;;;;;;;;3563403;39;113022;-65
2021/04/14 14:06:23;;;;;;;;;2.00;2.00;;;;;;;;3564579;39;113535;-67
2021/04/14 14:08:51;;;;;;;;;4.00;2.75;;;;;;;;3565945;39;113789;-68
2021/04/14 14:11:19;;;;;;;;;2.00;2.00;;;;;;;;3562510;39;113177;-68
2021/04/14 14:13:47;;;;;;;;;4.00;2.00;;;;;;;;3562762;39;114000;-67
2021/04/14 14:16:18;;;;;;;;;2.00;2.00;;;;;;;;3563349;39;112184;-67
2021/04/14 14:18:57;;;;;;;;;3.00;3.00;;;;;;;;3565449;39;114211;-67
2021/04/14 14:21:23;;;;;;;;;2.50;2.50;;;;;;;;3562636;39;114394;-68
2021/04/14 14:23:50;;;;;;;;;2.00;2.00;;;;;;;;3563237;39;113646;-69
2021/04/14 14:26:17;;;;;;;;;3.00;2.75;;;;;;;;3562616;39;113594;-69
2021/04/14 14:28:43;;;;;;;;;2.25;2.25;;;;;;;;3561560;39;114195;-70
2021/04/14 14:31:13;;;;;;;;;3.00;3.00;;;;;;;;3565292;39;112288;-70